ESNS

Skellefteå Airport

Skellefteå, Sweden
METAR ESNS 140020Z AUTO 23005KT 9999 NCD M10/M12 Q1031
Observed Flight Rules
Dec-14 @ 00:20 UTC (23 minutes ago) Visual Flight Rules
Wind Visibility Clouds
230° at 5 knots 10,000+ meters
  • Clear skies
Temperatures Readings
Current -10°C / 14°F
Dewpoint -12°C / 10°F
Humidity 85%
Altimeter 30.44" Hg
Pressure 1031 hPa
Elevation 49
METAR ESNS 140020Z AUTO 23005KT 9999 NCD M10/M12 Q1031
Observed Flight Rules
Dec-14 @ 00:20 UTC
(23 minutes ago)
VFR
Wind Visibility
230° at 5 knots 10,000+ meters
Clouds
  • Clear skies
Temperature Dewpoint
-10°C / 14°F -12°C / 10°F
Humidity Altimeter Pressure
85% 30.44" Hg 1031 hPa